createdAt,value
2022-08-29T00:02:06.628Z,32163.31
2022-08-29T00:04:35.939Z,31147.44
2022-08-29T00:07:05.307Z,29131.63
2022-08-29T00:09:32.719Z,29462.34
2022-08-29T00:12:00.154Z,28117.28
2022-08-29T00:14:27.770Z,28451.56
2022-08-29T00:16:55.256Z,28115.81
2022-08-29T00:19:22.688Z,27784.91
2022-08-29T00:21:50.119Z,28798.31
2022-08-29T00:24:18.844Z,29804.59
2022-08-29T00:26:46.408Z,29463.88
2022-08-29T00:29:13.811Z,28449.06
2022-08-29T00:31:41.250Z,27442.44
2022-08-29T00:34:08.664Z,27775.72
2022-08-29T00:36:36.093Z,27439.09
2022-08-29T00:39:03.899Z,27764.59
2022-08-29T00:41:37.999Z,26753.28
2022-08-29T00:44:06.930Z,25409.03
2022-08-29T00:46:55.021Z,25413.50
2022-08-29T00:49:33.017Z,25749.91
2022-08-29T00:52:04.423Z,26072.25
2022-08-29T00:54:32.975Z,24730.72
2022-08-29T00:57:01.836Z,24396.00
2022-08-29T00:59:34.007Z,25061.50
2022-08-29T01:02:01.510Z,23719.19
2022-08-29T01:04:29.977Z,24060.00
2022-08-29T01:06:57.867Z,24729.66
2022-08-29T01:09:27.118Z,25059.75
2022-08-29T01:12:12.668Z,24388.28
2022-08-29T01:14:43.759Z,23716.47
2022-08-29T01:17:11.583Z,23381.63
2022-08-29T01:19:46.430Z,23714.59
2022-08-29T01:22:34.815Z,24046.25
2022-08-29T01:25:07.443Z,23038.03
2022-08-29T01:27:40.028Z,23366.59
2022-08-29T01:30:09.771Z,22027.72
2022-08-29T01:32:37.206Z,21353.56
2022-08-29T01:35:05.760Z,21690.91
2022-08-29T01:37:35.125Z,21357.34
2022-08-29T01:40:05.979Z,21360.38
2022-08-29T01:42:37.236Z,22368.31
2022-08-29T01:45:09.874Z,23044.75
2022-08-29T01:47:39.152Z,24390.66
2022-08-29T01:50:10.828Z,25736.84
2022-08-29T01:52:38.247Z,26745.09
2022-08-29T01:55:07.923Z,28430.53
2022-08-29T01:57:37.782Z,30113.53
2022-08-29T02:00:08.636Z,31458.53
2022-08-29T02:02:36.793Z,31794.41
2022-08-29T02:05:05.634Z,32130.28
2022-08-29T02:07:33.124Z,32129.72
2022-08-29T02:10:00.600Z,32464.19
2022-08-29T02:12:31.607Z,32455.78
2022-08-29T02:14:59.088Z,31782.59
2022-08-29T02:17:26.485Z,31105.69
2022-08-29T02:19:53.920Z,30773.22
2022-08-29T02:22:21.630Z,32115.28
2022-08-29T02:24:49.008Z,31775.44
2022-08-29T02:27:16.499Z,31437.56
2022-08-29T02:29:45.219Z,32108.06
2022-08-29T02:32:15.460Z,31101.94
2022-08-29T02:34:48.487Z,31761.16
2022-08-29T02:37:16.997Z,30081.16
2022-08-29T02:39:44.431Z,30081.94
2022-08-29T02:42:11.833Z,30079.34
2022-08-29T02:44:39.215Z,30411.13
2022-08-29T02:47:09.243Z,29397.44
2022-08-29T02:49:36.813Z,28733.28
2022-08-29T02:52:06.533Z,29064.13
2022-08-29T02:54:34.251Z,28722.56
2022-08-29T02:57:01.659Z,28056.91
2022-08-29T02:59:29.038Z,28059.09
2022-08-29T03:01:56.477Z,29057.31
2022-08-29T03:04:25.239Z,28381.84
2022-08-29T03:06:53.436Z,27715.31
2022-08-29T03:09:20.837Z,28387.78
2022-08-29T03:11:48.227Z,28726.28
2022-08-29T03:14:16.021Z,28729.28
2022-08-29T03:16:43.496Z,29389.78
2022-08-29T03:19:10.913Z,29052.28
2022-08-29T03:21:39.743Z,29054.28
2022-08-29T03:24:07.235Z,28381.84
2022-08-29T03:26:34.656Z,28713.81
2022-08-29T03:29:02.480Z,28382.34
2022-08-29T03:31:30.117Z,28713.56
2022-08-29T03:33:57.684Z,28050.28
2022-08-29T03:36:26.337Z,29723.50
2022-08-29T03:38:55.276Z,29386.22
2022-08-29T03:41:23.864Z,29055.31
2022-08-29T03:43:51.793Z,29729.44
2022-08-29T03:46:19.278Z,30723.41
2022-08-29T03:48:46.763Z,30041.53
2022-08-29T03:51:14.206Z,28361.59
2022-08-29T03:53:41.701Z,27357.63
2022-08-29T03:56:10.883Z,27021.47
2022-08-29T03:58:50.429Z,27020.78
2022-08-29T04:01:22.271Z,26351.81
2022-08-29T04:03:49.752Z,27361.22
2022-08-29T04:06:17.416Z,28033.47
2022-08-29T04:08:47.206Z,28365.06
2022-08-29T04:11:18.093Z,28695.34
2022-08-29T04:13:45.929Z,27692.63
2022-08-29T04:16:15.023Z,28360.13
2022-08-29T04:18:42.871Z,27687.31
2022-08-29T04:21:10.947Z,27690.44
2022-08-29T04:23:40.089Z,27354.53
2022-08-29T04:26:35.479Z,27693.09
2022-08-29T04:29:04.505Z,28031.25
2022-08-29T04:31:32.070Z,28699.34
2022-08-29T04:33:59.541Z,29369.38
2022-08-29T04:36:28.107Z,28696.34
2022-08-29T04:38:55.573Z,28362.59
2022-08-29T04:41:23.059Z,28362.09
2022-08-29T04:43:50.464Z,28371.47
2022-08-29T04:46:24.690Z,28369.50
2022-08-29T04:48:52.472Z,29045.19
2022-08-29T04:51:20.442Z,29385.97
2022-08-29T04:53:48.151Z,30060.84
2022-08-29T04:56:15.691Z,30057.97
2022-08-29T04:58:44.933Z,29729.94
2022-08-29T05:01:15.773Z,29733.31
2022-08-29T05:03:45.031Z,30404.53
2022-08-29T05:06:14.488Z,30740.97
2022-08-29T05:08:43.938Z,30750.03
2022-08-29T05:11:15.394Z,31424.53
2022-08-29T05:13:52.508Z,31427.25
2022-08-29T05:16:20.008Z,31774.59
2022-08-29T05:18:48.829Z,32780.81
2022-08-29T05:21:25.806Z,34467.66
2022-08-29T05:23:53.817Z,35482.97
2022-08-29T05:26:21.305Z,36498.22
2022-08-29T05:28:49.675Z,38866.47
2022-08-29T05:31:17.173Z,43266.16
2022-08-29T05:33:44.605Z,45981.84
2022-08-29T05:36:13.365Z,49037.09
2022-08-29T05:38:40.870Z,52098.13
2022-08-29T05:41:08.387Z,54149.88
2022-08-29T05:43:36.469Z,55849.44
2022-08-29T05:46:06.240Z,58922.56
2022-08-29T05:48:34.928Z,69150.69
2022-08-29T05:51:02.923Z,72231.22
2022-08-29T05:53:31.954Z,73972.63
2022-08-29T05:55:59.340Z,81497.50
2022-08-29T05:58:28.226Z,90410.13
2022-08-29T06:00:55.624Z,88390.59
2022-08-29T06:03:23.167Z,99079.78
2022-08-29T06:05:52.557Z,102893.16
2022-08-29T06:08:21.013Z,118826.28
2022-08-29T06:10:49.791Z,131691.53
2022-08-29T06:13:17.197Z,142559.09
2022-08-29T06:15:45.926Z,152294.84
2022-08-29T06:18:13.906Z,154105.28
2022-08-29T06:20:42.005Z,154177.81
2022-08-29T06:23:09.453Z,154180.41
2022-08-29T06:25:40.074Z,154238.59
2022-08-29T06:28:09.310Z,154188.13
2022-08-29T06:30:36.855Z,154201.06
2022-08-29T06:33:04.409Z,154254.13
2022-08-29T06:35:31.844Z,154274.84
2022-08-29T06:37:59.256Z,154298.13
2022-08-29T06:40:27.217Z,154327.91
2022-08-29T06:42:54.773Z,154379.69
2022-08-29T06:45:23.495Z,154425.06
2022-08-29T06:47:50.949Z,154393.94
2022-08-29T06:50:19.117Z,154418.56
2022-08-29T06:52:47.122Z,154454.81
2022-08-29T06:55:15.256Z,154467.75
2022-08-29T06:57:45.469Z,154505.34
2022-08-29T07:00:22.508Z,154511.78
2022-08-29T07:02:52.888Z,154590.78
2022-08-29T07:05:21.270Z,154602.44
2022-08-29T07:07:48.753Z,154615.38
2022-08-29T07:10:20.108Z,154610.22
2022-08-29T07:12:49.852Z,154673.75
2022-08-29T07:15:17.436Z,154659.50
2022-08-29T07:17:44.837Z,154726.88
2022-08-29T07:20:14.452Z,154795.56
2022-08-29T07:22:42.219Z,154750.22
2022-08-29T07:25:12.572Z,154755.38
2022-08-29T07:27:43.264Z,154734.66
2022-08-29T07:30:12.261Z,154768.34
2022-08-29T07:32:44.997Z,154763.19
2022-08-29T07:35:18.597Z,154734.66
2022-08-29T07:37:57.568Z,154739.81
2022-08-29T07:40:25.050Z,154748.94
2022-08-29T07:42:52.552Z,154721.72
2022-08-29T07:45:20.346Z,154733.38
2022-08-29T07:47:47.757Z,154742.41
2022-08-29T07:50:17.052Z,154786.50
2022-08-29T07:52:44.477Z,154837.03
2022-08-29T07:55:11.991Z,154848.69
2022-08-29T07:57:39.607Z,154835.72
2022-08-29T08:00:09.947Z,154864.25
2022-08-29T08:02:37.435Z,154892.81
2022-08-29T08:05:06.773Z,154852.59
2022-08-29T08:07:36.617Z,154953.72
2022-08-29T08:10:08.860Z,154962.84
2022-08-29T08:12:36.287Z,154986.16
2022-08-29T08:15:04.329Z,155078.22
2022-08-29T08:17:31.710Z,155097.75
2022-08-29T08:19:59.101Z,155038.03
2022-08-29T08:22:26.538Z,155063.97
2022-08-29T08:24:55.251Z,155069.16
2022-08-29T08:27:22.666Z,155084.75
2022-08-29T08:29:50.063Z,155101.66
2022-08-29T08:32:18.083Z,155092.56
2022-08-29T08:34:45.602Z,155063.97
2022-08-29T08:37:13.848Z,155134.06
2022-08-29T08:39:46.898Z,155219.69
2022-08-29T08:42:26.475Z,155281.97
2022-08-29T08:45:04.113Z,155305.41
2022-08-29T08:47:36.111Z,155233.97
2022-08-29T08:50:10.035Z,155250.84
2022-08-29T08:52:44.902Z,155267.69
2022-08-29T08:55:21.354Z,155257.31
2022-08-29T08:58:00.696Z,155284.56
2022-08-29T09:00:36.088Z,155374.16
2022-08-29T09:03:14.182Z,155245.66
2022-08-29T09:05:56.152Z,155391.03
2022-08-29T09:08:31.511Z,155356.00
2022-08-29T09:11:03.967Z,155422.22
2022-08-29T09:13:46.609Z,155406.63
2022-08-29T09:16:25.068Z,155432.59
2022-08-29T09:18:54.364Z,155461.16
2022-08-29T09:24:16.794Z,155385.88
2022-08-29T09:26:44.354Z,155388.44
2022-08-29T09:29:14.018Z,155505.31
2022-08-29T09:31:41.956Z,155505.31
2022-08-29T09:34:11.867Z,155570.28
2022-08-29T09:36:47.353Z,155601.47
2022-08-29T09:39:27.562Z,155540.41
2022-08-29T09:41:58.905Z,155580.66
2022-08-29T09:44:29.490Z,155548.22
2022-08-29T09:47:11.896Z,155537.78
2022-08-29T09:49:41.467Z,155567.69
2022-08-29T09:52:13.054Z,155597.56
2022-08-29T09:54:41.353Z,155613.16
2022-08-29T09:57:22.081Z,155609.22
2022-08-29T10:00:06.445Z,155526.09
2022-08-29T10:02:45.605Z,155561.19
2022-08-29T10:05:29.701Z,155585.88
2022-08-29T10:07:57.948Z,155705.38
2022-08-29T10:10:27.513Z,155850.94
2022-08-29T10:13:00.423Z,155739.22
2022-08-29T10:15:50.024Z,155607.94
2022-08-29T10:18:28.547Z,155643.03
2022-08-29T10:21:06.027Z,155748.28
2022-08-29T10:23:42.794Z,155723.63
2022-08-29T10:26:26.040Z,155627.44
2022-08-29T10:29:01.107Z,155657.31
2022-08-29T10:31:36.426Z,155661.19
2022-08-29T10:34:16.678Z,155692.38
2022-08-29T10:36:51.294Z,155597.56
2022-08-29T10:39:30.005Z,155650.81
2022-08-29T10:42:00.743Z,155671.63
2022-08-29T10:44:36.133Z,155705.38
2022-08-29T10:47:20.208Z,155679.38
2022-08-29T10:50:02.286Z,155837.94
2022-08-29T10:52:36.531Z,155835.38
2022-08-29T10:55:12.907Z,155740.47
2022-08-29T10:57:48.108Z,155856.16
2022-08-29T11:00:19.877Z,155853.53
2022-08-29T11:02:56.433Z,155897.78
2022-08-29T11:05:26.947Z,155841.84
2022-08-29T11:08:02.183Z,155819.78
2022-08-29T11:10:38.605Z,155754.75
2022-08-29T11:13:11.255Z,155783.34
2022-08-29T11:15:43.388Z,155762.59
2022-08-29T11:18:22.570Z,155845.75
2022-08-29T11:20:56.108Z,155732.69
2022-08-29T11:23:31.299Z,155905.56
2022-08-29T11:26:03.023Z,155982.28
2022-08-29T11:28:39.751Z,155936.78
2022-08-29T11:31:16.149Z,155901.72
2022-08-29T11:33:51.720Z,155916.00
2022-08-29T11:36:43.582Z,155793.78
2022-08-29T11:39:34.338Z,155830.16
2022-08-29T11:42:06.356Z,155913.41
2022-08-29T11:44:36.795Z,155891.22
2022-08-29T11:47:40.597Z,155949.78
2022-08-29T11:50:28.481Z,155922.47
2022-08-29T11:52:59.017Z,155848.38
2022-08-29T11:55:34.380Z,155905.56
2022-08-29T11:58:11.780Z,155992.69
2022-08-29T12:00:45.701Z,155905.56
2022-08-29T12:03:53.412Z,155952.38
2022-08-29T12:06:43.230Z,156017.38
2022-08-29T12:09:26.549Z,155952.38
2022-08-29T12:12:16.417Z,155932.88
2022-08-29T12:14:46.714Z,155843.16
2022-08-29T12:18:01.495Z,155892.53
2022-08-29T12:20:40.096Z,155958.88
2022-08-29T12:23:21.202Z,156004.38
2022-08-29T12:26:21.014Z,156043.38
2022-08-29T12:28:46.640Z,155947.16
2022-08-29T12:31:38.252Z,156004.38
2022-08-29T12:34:28.155Z,155981.00
2022-08-29T12:37:21.699Z,155918.56
2022-08-29T12:40:01.881Z,155919.88
2022-08-29T12:42:41.620Z,155999.16
2022-08-29T12:45:13.887Z,155923.78
2022-08-29T12:47:47.145Z,156022.59
2022-08-29T12:50:18.519Z,156055.06
2022-08-29T12:52:59.707Z,156053.78
2022-08-29T12:55:33.769Z,156021.28
2022-08-29T12:58:01.664Z,155887.34
2022-08-29T13:00:32.423Z,155923.78
2022-08-29T13:03:02.747Z,155960.16
2022-08-29T13:05:32.649Z,156042.06
2022-08-29T13:08:02.185Z,156036.91
2022-08-29T13:10:31.144Z,156039.47
2022-08-29T13:13:07.636Z,156014.78
2022-08-29T13:15:35.310Z,156014.78
2022-08-29T13:18:03.286Z,156012.16
2022-08-29T13:20:47.088Z,155913.41
2022-08-29T13:23:19.769Z,155916.00
2022-08-29T13:25:52.310Z,155961.47
2022-08-29T13:28:28.305Z,155978.38
2022-08-29T13:31:30.532Z,155874.38
2022-08-29T13:34:14.881Z,155857.44
2022-08-29T13:37:02.278Z,155934.16
2022-08-29T13:39:45.739Z,155948.47
2022-08-29T13:42:25.478Z,155949.78
2022-08-29T13:45:13.904Z,155926.41
2022-08-29T13:47:58.498Z,155949.78
2022-08-29T13:50:26.728Z,155897.78
2022-08-29T13:52:55.747Z,155927.69
2022-08-29T13:55:23.420Z,155905.56
2022-08-29T13:57:54.642Z,155960.16
2022-08-29T14:00:35.256Z,155897.78
2022-08-29T14:03:05.453Z,155904.25
2022-08-29T14:05:33.210Z,155968.00
2022-08-29T14:08:00.653Z,155923.78
2022-08-29T14:10:28.072Z,155955.00
2022-08-29T14:12:56.843Z,155996.59
2022-08-29T14:15:24.279Z,155942.00
2022-08-29T14:17:51.715Z,155913.41
2022-08-29T14:20:20.302Z,155900.41
2022-08-29T14:22:48.301Z,155905.56
2022-08-29T14:25:19.572Z,155932.88
2022-08-29T14:27:48.519Z,155987.47
2022-08-29T14:30:19.964Z,156030.38
2022-08-29T14:32:47.524Z,156031.69
2022-08-29T14:35:25.774Z,156066.78
2022-08-29T14:37:54.735Z,156001.78
2022-08-29T14:40:22.504Z,156038.22
2022-08-29T14:42:50.027Z,156040.78
2022-08-29T14:45:19.024Z,155994.00
2022-08-29T14:47:47.194Z,155947.16
2022-08-29T14:50:16.515Z,155908.19
2022-08-29T14:52:44.659Z,155927.69
2022-08-29T14:55:13.296Z,155936.78
2022-08-29T14:57:41.528Z,155978.38
2022-08-29T15:00:12.951Z,155926.41
2022-08-29T15:05:33.973Z,155852.25
2022-08-29T15:08:06.206Z,155861.38
2022-08-29T15:10:34.093Z,155835.38
2022-08-29T15:13:01.848Z,155871.75
2022-08-29T15:15:29.949Z,155848.38
2022-08-29T15:18:00.934Z,155815.88
2022-08-29T15:20:39.420Z,155831.47
2022-08-29T15:23:09.047Z,155780.81
2022-08-29T15:25:38.671Z,155824.94
2022-08-29T15:28:13.228Z,155867.84
2022-08-29T15:30:42.344Z,155854.84
2022-08-29T15:33:11.110Z,155824.94
2022-08-29T15:35:40.148Z,155843.16
2022-08-29T15:38:08.282Z,155865.22
2022-08-29T15:40:36.448Z,155840.53
2022-08-29T15:43:04.329Z,155771.66
2022-08-29T15:45:31.908Z,155784.66
2022-08-29T15:48:00.754Z,155806.78
2022-08-29T15:50:30.793Z,155757.38
2022-08-29T15:52:58.256Z,155741.78
2022-08-29T15:55:25.725Z,155752.22
2022-08-29T15:57:57.202Z,155772.97
2022-08-29T16:00:30.111Z,155787.28
2022-08-29T16:02:58.868Z,155743.06
2022-08-29T16:05:26.563Z,155753.50
2022-08-29T16:07:55.272Z,155711.94
2022-08-29T16:10:22.701Z,155684.59
2022-08-29T16:12:50.144Z,155726.22
2022-08-29T16:15:17.568Z,155734.00
2022-08-29T16:17:45.027Z,155748.28
2022-08-29T16:20:12.888Z,155789.88
2022-08-29T16:22:41.437Z,155770.38
2022-08-29T16:25:12.204Z,155754.75
2022-08-29T16:27:39.600Z,155793.78
2022-08-29T16:30:09.790Z,155765.19
2022-08-29T16:32:37.477Z,155745.69
2022-08-29T16:35:06.346Z,155736.59
2022-08-29T16:37:34.363Z,155714.50
2022-08-29T16:40:04.031Z,155665.09
2022-08-29T16:42:34.036Z,155674.16
2022-08-29T16:45:01.683Z,155708.03
2022-08-29T16:47:29.085Z,155641.72
2022-08-29T16:49:56.550Z,155641.72
2022-08-29T16:52:23.940Z,155661.19
2022-08-29T16:54:53.655Z,155648.19
2022-08-29T16:57:21.437Z,155627.44
2022-08-29T16:59:50.210Z,155617.06
2022-08-29T17:02:17.701Z,155624.81
2022-08-29T17:04:46.680Z,155607.94
2022-08-29T17:07:14.280Z,155575.50
2022-08-29T17:09:40.816Z,155554.69
2022-08-29T17:12:08.240Z,155502.69
2022-08-29T17:14:36.467Z,155580.66
2022-08-29T17:17:05.516Z,155506.63
2022-08-29T17:19:34.028Z,155483.19
2022-08-29T17:22:01.552Z,155501.41
2022-08-29T17:24:29.318Z,155487.13
2022-08-29T17:26:56.940Z,155463.75
2022-08-29T17:29:24.356Z,155414.44
2022-08-29T17:31:51.809Z,155405.31
2022-08-29T17:34:20.573Z,155437.78
2022-08-29T17:36:49.639Z,155466.38
2022-08-29T17:39:17.119Z,155391.03
2022-08-29T17:41:50.239Z,155407.94
2022-08-29T17:44:18.307Z,155455.94
2022-08-29T17:46:46.236Z,155385.88
2022-08-29T17:49:13.621Z,155326.16
2022-08-29T17:51:42.417Z,155367.69
2022-08-29T17:54:12.406Z,155337.81
2022-08-29T17:56:44.832Z,155322.25
2022-08-29T17:59:12.845Z,155265.13
2022-08-29T18:01:40.625Z,155219.69
2022-08-29T18:04:08.112Z,155170.41
2022-08-29T18:06:35.654Z,155115.94
2022-08-29T18:09:05.644Z,155118.50
2022-08-29T18:11:33.617Z,155069.16
2022-08-29T18:14:01.045Z,155041.94
2022-08-29T18:16:28.526Z,155043.22
2022-08-29T18:18:56.026Z,154996.53
2022-08-29T18:21:23.776Z,154995.22
2022-08-29T18:23:51.182Z,154987.47
2022-08-29T18:26:20.184Z,154987.47
2022-08-29T18:28:47.612Z,154968.00
2022-08-29T18:31:18.462Z,154949.88
2022-08-29T18:33:59.967Z,155030.25
2022-08-29T18:36:28.928Z,154958.94
2022-08-29T18:38:56.339Z,154909.69
2022-08-29T18:41:25.143Z,154853.88
2022-08-29T18:43:52.579Z,154905.78
2022-08-29T18:46:20.362Z,154870.81
2022-08-29T18:48:47.860Z,154838.31
2022-08-29T18:51:15.555Z,154827.97
2022-08-29T18:53:43.085Z,154815.00
2022-08-29T18:56:10.632Z,154809.81
2022-08-29T18:58:41.140Z,154769.63
2022-08-29T19:01:11.184Z,154772.22
2022-08-29T19:03:38.631Z,154782.59
2022-08-29T19:06:06.684Z,154768.34
2022-08-29T19:08:34.277Z,154748.94
2022-08-29T19:11:01.688Z,154743.72
2022-08-29T19:13:30.896Z,154680.25
2022-08-29T19:16:00.499Z,154643.94
2022-08-29T19:18:28.375Z,154638.78
2022-08-29T19:21:06.175Z,154620.59
2022-08-29T19:23:36.297Z,154527.34
2022-08-29T19:26:07.956Z,154550.63
2022-08-29T19:28:36.537Z,154538.97
2022-08-29T19:31:06.488Z,154511.78
2022-08-29T19:33:34.964Z,154504.03
2022-08-29T19:36:04.047Z,154436.72
2022-08-29T19:38:31.502Z,154396.56
2022-08-29T19:40:59.915Z,154356.41
2022-08-29T19:43:29.968Z,154342.16
2022-08-29T19:45:59.140Z,154343.47
2022-08-29T19:48:28.632Z,154423.75
2022-08-29T19:50:57.677Z,154338.25
2022-08-29T19:53:26.720Z,154377.09
2022-08-29T19:55:55.294Z,148790.78
2022-08-29T19:58:26.175Z,144553.88
2022-08-29T20:00:59.297Z,143831.06
2022-08-29T20:03:28.826Z,147041.63
2022-08-29T20:05:59.397Z,154413.38
2022-08-29T20:08:26.908Z,150428.25
2022-08-29T20:10:56.678Z,143484.84
2022-08-29T20:13:24.073Z,135749.03
2022-08-29T20:15:56.036Z,129863.06
2022-08-29T20:18:23.476Z,128082.41
2022-08-29T20:20:52.407Z,123582.44
2022-08-29T20:23:19.776Z,126024.44
2022-08-29T20:25:47.336Z,135100.94
2022-08-29T20:28:15.855Z,129802.13
2022-08-29T20:30:43.748Z,119698.25
2022-08-29T20:33:13.630Z,114501.59
2022-08-29T20:35:58.620Z,117655.59
2022-08-29T20:38:28.114Z,115914.28
2022-08-29T20:40:55.575Z,116951.50
2022-08-29T20:43:23.098Z,120072.69
2022-08-29T20:45:50.613Z,119733.38
2022-08-29T20:48:18.210Z,124261.53
2022-08-29T20:50:45.612Z,119014.72
2022-08-29T20:53:30.186Z,112738.78
2022-08-29T20:56:00.863Z,106501.53
2022-08-29T20:58:30.035Z,102006.09
2022-08-29T21:00:58.149Z,102013.78
2022-08-29T21:03:43.902Z,102359.28
2022-08-29T21:06:11.679Z,102003.53
2022-08-29T21:08:40.950Z,99558.78
2022-08-29T21:11:10.204Z,96461.56
2022-08-29T21:13:43.146Z,95068.22
2022-08-29T21:16:11.135Z,92977.66
2022-08-29T21:18:39.000Z,86777.16
2022-08-29T21:21:06.745Z,85422.03
2022-08-29T21:23:34.933Z,85077.72
2022-08-29T21:26:03.138Z,88510.88
2022-08-29T21:28:33.316Z,85765.69
2022-08-29T21:31:04.939Z,82286.53
2022-08-29T21:33:33.369Z,74422.19
2022-08-29T21:36:01.537Z,75088.19
2022-08-29T21:38:29.282Z,70626.53
2022-08-29T21:40:58.578Z,68594.75
2022-08-29T21:43:26.128Z,70296.50
2022-08-29T21:45:54.859Z,68247.78
2022-08-29T21:48:22.265Z,73392.56
2022-08-29T21:50:55.319Z,74738.25
2022-08-29T21:53:23.380Z,72689.63
2022-08-29T21:55:50.814Z,74044.88
2022-08-29T21:58:18.480Z,70954.72
2022-08-29T22:00:45.951Z,68890.72
2022-08-29T22:03:14.791Z,66173.41
2022-08-29T22:05:43.984Z,67527.97
2022-08-29T22:08:13.845Z,68901.72
2022-08-29T22:10:42.331Z,68549.13
2022-08-29T22:13:10.104Z,69930.44
2022-08-29T22:15:55.479Z,70252.69
2022-08-29T22:18:24.280Z,66823.06
2022-08-29T22:20:52.844Z,65454.78
2022-08-29T22:23:22.902Z,63378.44
2022-08-29T22:25:50.772Z,61360.72
2022-08-29T22:28:18.176Z,62024.44
2022-08-29T22:30:45.570Z,61693.16
2022-08-29T22:33:16.398Z,61695.22
2022-08-29T22:35:45.663Z,62378.34
2022-08-29T22:38:13.109Z,63407.91
2022-08-29T22:40:40.664Z,65111.44
2022-08-29T22:43:08.091Z,64420.03
2022-08-29T22:45:35.503Z,65124.06
2022-08-29T22:48:03.344Z,65131.22
2022-08-29T22:50:30.853Z,64415.16
2022-08-29T22:53:01.889Z,62040.69
2022-08-29T22:57:57.763Z,58620.53
2022-08-29T23:00:27.107Z,58609.13
2022-08-29T23:02:54.956Z,57234.63
2022-08-29T23:05:24.093Z,54842.25
2022-08-29T23:07:51.737Z,52474.84
2022-08-29T23:10:21.969Z,53163.13
2022-08-29T23:12:49.683Z,54863.59
2022-08-29T23:15:19.089Z,56913.78
2022-08-29T23:17:46.483Z,57930.56
2022-08-29T23:20:14.943Z,57568.88
2022-08-29T23:22:43.067Z,55195.59
2022-08-29T23:25:12.014Z,55194.66
2022-08-29T23:27:41.196Z,56886.34
2022-08-29T23:30:11.245Z,55177.84
2022-08-29T23:32:38.899Z,53817.13
2022-08-29T23:35:07.503Z,52804.63
2022-08-29T23:37:35.440Z,52462.81
2022-08-29T23:40:03.291Z,53492.91
2022-08-29T23:42:32.075Z,54508.47
2022-08-29T23:45:00.861Z,55544.91
2022-08-29T23:47:28.397Z,58274.75
2022-08-29T23:49:55.870Z,58933.03
2022-08-29T23:52:23.301Z,57564.50
2022-08-29T23:54:50.740Z,57899.19
2022-08-29T23:57:18.149Z,56204.50
